createdAt,value
2018-03-31T00:01:29.697Z,96125.53
2018-03-31T00:03:56.756Z,96126.38
2018-03-31T00:06:23.803Z,96121.16
2018-03-31T00:08:50.888Z,96119.52
2018-03-31T00:11:17.952Z,96114.75
2018-03-31T00:13:45.034Z,96101.64
2018-03-31T00:16:12.085Z,96113.33
2018-03-31T00:18:39.141Z,96111.06
2018-03-31T00:21:06.229Z,96107.16
2018-03-31T00:23:33.276Z,96109.16
2018-03-31T00:26:00.548Z,96109.27
2018-03-31T00:28:27.600Z,96114.66
2018-03-31T00:30:54.647Z,96112.64
2018-03-31T00:33:21.720Z,96112.54
2018-03-31T00:35:48.781Z,96110.84
2018-03-31T00:38:15.850Z,96118.86
2018-03-31T00:40:42.909Z,96129.86
2018-03-31T00:43:09.988Z,96142.64
2018-03-31T00:45:37.057Z,96142.31
2018-03-31T00:48:04.103Z,96141.92
2018-03-31T00:50:31.177Z,96140.27
2018-03-31T00:52:58.235Z,96145.34
2018-03-31T00:55:25.381Z,96140.55
2018-03-31T00:57:52.398Z,96135.61
2018-03-31T01:00:19.444Z,96134.45
2018-03-31T01:02:46.516Z,96136.97
2018-03-31T01:05:13.565Z,96136.97
2018-03-31T01:07:41.016Z,96128.22
2018-03-31T01:10:08.268Z,96111.29
2018-03-31T01:12:35.327Z,96111.95
2018-03-31T01:15:02.405Z,96118.50
2018-03-31T01:17:29.461Z,96122.30
2018-03-31T01:19:56.557Z,96120.84
2018-03-31T01:22:23.608Z,96114.11
2018-03-31T01:24:51.168Z,96118.23
2018-03-31T01:27:18.237Z,96117.89
2018-03-31T01:29:45.366Z,96127.36
2018-03-31T01:32:12.432Z,96132.48
2018-03-31T01:34:39.503Z,96135.75
2018-03-31T01:37:06.821Z,96127.03
2018-03-31T01:39:33.921Z,96128.72
2018-03-31T01:42:00.967Z,96139.89
2018-03-31T01:44:28.040Z,96156.23
2018-03-31T01:46:55.086Z,96157.59
2018-03-31T01:49:22.358Z,96167.53
2018-03-31T01:51:49.407Z,96169.45
2018-03-31T01:54:16.522Z,96164.61
2018-03-31T01:56:43.603Z,96161.14
2018-03-31T01:59:10.658Z,96169.38
2018-03-31T02:01:37.732Z,96158.67
2018-03-31T02:04:04.873Z,96160.66
2018-03-31T02:06:31.965Z,96153.52
2018-03-31T02:08:59.007Z,96148.79
2018-03-31T02:11:26.095Z,96151.14
2018-03-31T02:13:53.164Z,96136.70
2018-03-31T02:16:20.222Z,96142.19
2018-03-31T02:18:47.288Z,96139.61
2018-03-31T02:21:14.356Z,96141.98
2018-03-31T02:23:41.441Z,96137.56
2018-03-31T02:26:08.492Z,96149.16
2018-03-31T02:28:35.560Z,96144.20
2018-03-31T02:31:02.625Z,96153.58
2018-03-31T02:33:29.669Z,96149.97
2018-03-31T02:35:56.745Z,96151.00
2018-03-31T02:38:23.803Z,96145.63
2018-03-31T02:40:50.995Z,96145.84
2018-03-31T02:43:18.042Z,96146.02
2018-03-31T02:45:45.091Z,96148.93
2018-03-31T02:48:12.167Z,96146.22
2018-03-31T02:50:39.217Z,96147.00
2018-03-31T02:53:06.350Z,96159.69
2018-03-31T02:55:33.404Z,96151.06
2018-03-31T02:58:00.750Z,96147.89
2018-03-31T03:00:27.809Z,96141.62
2018-03-31T03:02:54.856Z,96138.91
2018-03-31T03:05:21.934Z,96146.97
2018-03-31T03:07:48.988Z,96158.12
2018-03-31T03:10:16.061Z,96160.58
2018-03-31T03:12:43.136Z,96168.19
2018-03-31T03:15:10.475Z,96160.35
2018-03-31T03:17:37.791Z,96161.64
2018-03-31T03:20:04.840Z,96156.10
2018-03-31T03:22:31.915Z,96153.69
2018-03-31T03:24:58.960Z,96157.77
2018-03-31T03:27:26.036Z,96150.88
2018-03-31T03:29:53.093Z,96144.84
2018-03-31T03:32:20.323Z,96138.41
2018-03-31T03:34:47.373Z,96142.19
2018-03-31T03:37:14.438Z,96136.19
2018-03-31T03:39:41.508Z,96145.72
2018-03-31T03:42:08.574Z,96149.48
2018-03-31T03:44:35.648Z,96143.42
2018-03-31T03:47:02.708Z,96148.52
2018-03-31T03:49:30.072Z,96149.12
2018-03-31T03:51:57.085Z,96142.65
2018-03-31T03:54:24.129Z,96150.88
2018-03-31T03:56:51.205Z,96151.27
2018-03-31T03:59:18.257Z,96155.23
2018-03-31T04:01:45.329Z,96151.41
2018-03-31T04:04:12.384Z,96151.72
2018-03-31T04:06:39.692Z,96152.73
2018-03-31T04:09:06.736Z,96154.45
2018-03-31T04:11:33.782Z,96145.08
2018-03-31T04:14:00.853Z,96140.94
2018-03-31T04:16:27.894Z,96131.63
2018-03-31T04:18:54.952Z,96136.83
2018-03-31T04:21:21.995Z,96150.71
2018-03-31T04:23:49.264Z,96148.30
2018-03-31T04:26:16.307Z,96151.71
2018-03-31T04:28:43.353Z,96155.39
2018-03-31T04:31:10.429Z,96159.70
2018-03-31T04:33:37.484Z,96158.90
2018-03-31T04:36:04.550Z,96160.92
2018-03-31T04:38:31.596Z,96156.48
2018-03-31T04:40:58.796Z,96158.39
2018-03-31T04:43:25.843Z,96155.23
2018-03-31T04:45:52.884Z,96156.98
2018-03-31T04:48:19.995Z,96149.97
2018-03-31T04:50:47.036Z,96146.52
2018-03-31T04:53:14.108Z,96151.78
2018-03-31T04:55:41.157Z,96149.94
2018-03-31T04:58:08.232Z,96157.70
2018-03-31T05:00:35.284Z,96156.34
2018-03-31T05:03:02.339Z,96160.78
2018-03-31T05:05:29.439Z,96159.52
2018-03-31T05:07:56.495Z,96160.52
2018-03-31T05:10:23.570Z,96153.09
2018-03-31T05:12:50.620Z,96155.94
2018-03-31T05:15:17.979Z,96160.42
2018-03-31T05:17:45.030Z,96151.73
2018-03-31T05:20:12.088Z,96146.48
2018-03-31T05:22:39.160Z,96151.41
2018-03-31T05:25:06.209Z,96146.80
2018-03-31T05:27:33.275Z,96146.81
2018-03-31T05:30:00.325Z,96135.33
2018-03-31T05:32:27.531Z,96142.56
2018-03-31T05:34:54.598Z,96152.19
2018-03-31T05:37:21.652Z,96161.36
2018-03-31T05:39:48.733Z,96161.38
2018-03-31T05:42:15.784Z,96159.35
2018-03-31T05:44:42.859Z,96154.83
2018-03-31T05:47:09.916Z,96158.78
2018-03-31T05:49:37.051Z,96160.13
2018-03-31T05:52:04.085Z,96158.13
2018-03-31T05:54:31.135Z,96158.85
2018-03-31T05:56:58.215Z,96153.78
2018-03-31T05:59:25.322Z,96158.40
2018-03-31T06:01:52.400Z,96163.88
2018-03-31T06:04:19.455Z,96158.11
2018-03-31T06:06:46.805Z,96163.06
2018-03-31T06:09:13.851Z,96158.67
2018-03-31T06:11:40.899Z,96161.63
2018-03-31T06:14:07.976Z,96170.78
2018-03-31T06:16:35.028Z,96173.47
2018-03-31T06:19:02.101Z,96177.89
2018-03-31T06:21:29.160Z,96185.91
2018-03-31T06:23:56.236Z,96182.05
2018-03-31T06:26:23.289Z,96171.70
2018-03-31T06:28:50.351Z,96170.64
2018-03-31T06:31:17.427Z,96166.55
2018-03-31T06:33:44.488Z,96170.80
2018-03-31T06:36:11.560Z,96174.96
2018-03-31T06:38:38.617Z,96174.77
2018-03-31T06:41:06.218Z,96173.55
2018-03-31T06:43:33.263Z,96177.00
2018-03-31T06:46:00.314Z,96180.22
2018-03-31T06:48:27.385Z,96185.80
2018-03-31T06:50:54.444Z,96182.67
2018-03-31T06:53:21.513Z,96191.23
2018-03-31T06:55:48.565Z,96182.11
2018-03-31T06:58:15.675Z,96189.77
2018-03-31T07:00:42.724Z,96186.48
2018-03-31T07:03:09.783Z,96181.44
2018-03-31T07:05:36.852Z,96182.57
2018-03-31T07:08:03.901Z,96185.73
2018-03-31T07:10:31.487Z,96184.80
2018-03-31T07:12:58.544Z,96190.73
2018-03-31T07:15:25.840Z,96195.33
2018-03-31T07:17:52.850Z,96196.94
2018-03-31T07:20:19.905Z,96208.47
2018-03-31T07:22:46.978Z,96206.27
2018-03-31T07:25:14.027Z,96211.59
2018-03-31T07:27:41.110Z,96207.50
2018-03-31T07:30:08.163Z,96207.73
2018-03-31T07:32:35.428Z,96205.59
2018-03-31T07:35:02.476Z,96214.61
2018-03-31T07:37:29.523Z,96219.27
2018-03-31T07:39:56.599Z,96215.22
2018-03-31T07:42:23.656Z,96219.86
2018-03-31T07:44:50.737Z,96212.48
2018-03-31T07:47:17.807Z,96218.30
2018-03-31T07:49:44.900Z,96212.66
2018-03-31T07:52:11.958Z,96216.69
2018-03-31T07:54:39.077Z,96219.44
2018-03-31T07:57:06.153Z,96219.48
2018-03-31T07:59:33.204Z,96221.55
2018-03-31T08:02:00.273Z,96222.05
2018-03-31T08:04:27.370Z,96217.84
2018-03-31T08:06:54.612Z,96213.31
2018-03-31T08:09:21.671Z,96213.38
2018-03-31T08:11:48.723Z,96207.54
2018-03-31T08:14:15.793Z,96212.02
2018-03-31T08:16:42.900Z,96207.58
2018-03-31T08:19:11.491Z,96202.56
2018-03-31T08:21:38.543Z,96203.41
2018-03-31T08:24:05.641Z,96202.64
2018-03-31T08:26:32.697Z,96197.29
2018-03-31T08:28:59.758Z,96193.97
2018-03-31T08:31:26.832Z,96186.55
2018-03-31T08:33:53.881Z,96183.14
2018-03-31T08:36:20.956Z,96178.80
2018-03-31T08:38:48.016Z,96178.25
2018-03-31T08:41:15.541Z,96177.97
2018-03-31T08:43:42.593Z,96182.30
2018-03-31T08:46:09.644Z,96181.06
2018-03-31T08:48:36.717Z,96182.42
2018-03-31T08:51:03.765Z,96184.16
2018-03-31T08:53:30.835Z,96183.17
2018-03-31T08:55:57.892Z,96180.58
2018-03-31T08:58:25.195Z,96188.48
2018-03-31T09:00:52.243Z,96192.23
2018-03-31T09:03:19.308Z,96182.65
2018-03-31T09:05:46.380Z,96180.98
2018-03-31T09:08:13.428Z,96185.36
2018-03-31T09:10:40.496Z,96187.69
2018-03-31T09:13:07.540Z,96191.58
2018-03-31T09:15:34.601Z,96183.61
2018-03-31T09:18:01.685Z,96174.58
2018-03-31T09:20:28.745Z,96179.48
2018-03-31T09:22:55.836Z,96182.44
2018-03-31T09:25:22.892Z,96185.42
2018-03-31T09:27:49.936Z,96191.39
2018-03-31T09:30:17.003Z,96183.18
2018-03-31T09:32:44.056Z,96188.73
2018-03-31T09:35:11.312Z,96191.22
2018-03-31T09:37:38.350Z,96192.62
2018-03-31T09:40:05.416Z,96194.66
2018-03-31T09:42:32.494Z,96198.17
2018-03-31T09:44:59.550Z,96204.16
2018-03-31T09:47:26.616Z,96199.05
2018-03-31T09:49:53.676Z,96198.84
2018-03-31T09:52:20.772Z,96192.02
2018-03-31T09:54:47.811Z,96193.00
2018-03-31T09:57:14.863Z,96195.06
2018-03-31T09:59:41.933Z,96186.66
2018-03-31T10:02:08.985Z,96189.95
2018-03-31T10:04:36.061Z,96184.53
2018-03-31T10:07:03.107Z,96178.69
2018-03-31T10:09:30.185Z,96172.84
2018-03-31T10:11:57.249Z,96174.95
2018-03-31T10:14:24.295Z,96173.23
2018-03-31T10:16:51.466Z,96175.39
2018-03-31T10:19:18.531Z,96177.95
2018-03-31T10:21:45.756Z,96172.33
2018-03-31T10:24:12.807Z,96173.97
2018-03-31T10:26:39.895Z,96171.59
2018-03-31T10:29:06.955Z,96173.23
2018-03-31T10:31:34.012Z,96175.36
2018-03-31T10:34:01.088Z,96167.27
2018-03-31T10:36:28.144Z,96174.09
2018-03-31T10:38:55.234Z,96177.90
2018-03-31T10:41:22.284Z,96174.45
2018-03-31T10:43:49.359Z,96178.42
2018-03-31T10:46:16.413Z,96185.81
2018-03-31T10:48:43.474Z,96184.74
2018-03-31T10:51:10.544Z,96185.02
2018-03-31T10:53:37.595Z,96189.09
2018-03-31T10:56:04.665Z,96194.45
2018-03-31T10:58:31.716Z,96190.29
2018-03-31T11:00:58.812Z,96190.30
2018-03-31T11:03:25.873Z,96186.60
2018-03-31T11:05:52.928Z,96199.16
2018-03-31T11:08:20.008Z,96199.20
2018-03-31T11:10:47.060Z,96201.25
2018-03-31T11:13:14.128Z,96194.52
2018-03-31T11:15:41.177Z,96197.39
2018-03-31T11:18:09.185Z,96201.91
2018-03-31T11:20:36.239Z,96196.97
2018-03-31T11:23:03.296Z,96209.03
2018-03-31T11:25:30.364Z,96203.37
2018-03-31T11:27:57.422Z,96208.38
2018-03-31T11:30:24.495Z,96207.52
2018-03-31T11:32:51.793Z,96203.19
2018-03-31T11:35:18.900Z,96203.23
2018-03-31T11:37:45.960Z,96199.02
2018-03-31T11:40:13.003Z,96191.78
2018-03-31T11:42:40.068Z,96195.27
2018-03-31T11:45:07.116Z,96191.79
2018-03-31T11:47:34.194Z,96183.93
2018-03-31T11:50:01.298Z,96185.33
2018-03-31T11:52:28.385Z,96185.34
2018-03-31T11:54:55.446Z,96187.00
2018-03-31T11:57:22.505Z,96181.22
2018-03-31T11:59:49.596Z,96180.68
2018-03-31T12:02:16.648Z,96185.39
2018-03-31T12:04:43.728Z,96178.73
2018-03-31T12:07:10.896Z,96187.59
2018-03-31T12:09:38.116Z,96183.46
2018-03-31T12:12:05.167Z,96188.69
2018-03-31T12:14:32.223Z,96183.91
2018-03-31T12:16:59.292Z,96178.44
2018-03-31T12:19:26.337Z,96175.61
2018-03-31T12:21:53.416Z,96176.28
2018-03-31T12:24:20.464Z,96172.12
2018-03-31T12:26:47.751Z,96167.77
2018-03-31T12:29:14.817Z,96158.97
2018-03-31T12:31:41.866Z,96162.81
2018-03-31T12:34:09.163Z,96156.30
2018-03-31T12:36:36.236Z,96151.62
2018-03-31T12:39:03.316Z,96138.51
2018-03-31T12:41:30.429Z,96143.05
2018-03-31T12:43:57.580Z,96146.69
2018-03-31T12:46:24.634Z,96137.94
2018-03-31T12:48:51.684Z,96137.02
2018-03-31T12:51:18.761Z,96131.48
2018-03-31T12:53:45.816Z,96136.81
2018-03-31T12:56:12.892Z,96133.84
2018-03-31T12:58:39.952Z,96128.37
2018-03-31T13:01:07.021Z,96128.70
2018-03-31T13:03:34.076Z,96128.92
2018-03-31T13:06:01.128Z,96120.11
2018-03-31T13:08:28.208Z,96143.52
2018-03-31T13:10:55.260Z,96136.95
2018-03-31T13:13:22.357Z,96135.47
2018-03-31T13:15:49.410Z,96138.95
2018-03-31T13:18:16.779Z,96141.73
2018-03-31T13:20:43.847Z,96142.72
2018-03-31T13:23:10.896Z,96147.75
2018-03-31T13:25:37.967Z,96150.49
2018-03-31T13:28:05.024Z,96133.09
2018-03-31T13:30:32.100Z,96135.79
2018-03-31T13:32:59.151Z,96129.25
2018-03-31T13:35:26.244Z,96126.45
2018-03-31T13:37:53.377Z,96138.52
2018-03-31T13:40:20.425Z,96136.79
2018-03-31T13:42:47.513Z,96133.81
2018-03-31T13:45:14.568Z,96135.52
2018-03-31T13:47:41.642Z,96131.59
2018-03-31T13:50:08.688Z,96128.20
2018-03-31T13:52:35.954Z,96127.49
2018-03-31T13:55:03.039Z,96128.81
2018-03-31T13:57:30.096Z,96121.05
2018-03-31T13:59:57.177Z,96113.45
2018-03-31T14:02:24.256Z,96114.28
2018-03-31T14:04:51.813Z,96111.72
2018-03-31T14:07:18.867Z,96117.33
2018-03-31T14:09:45.917Z,96129.36
2018-03-31T14:12:13.067Z,96125.98
2018-03-31T14:14:40.123Z,96130.34
2018-03-31T14:17:07.212Z,96133.50
2018-03-31T14:19:34.258Z,96135.45
2018-03-31T14:22:01.312Z,96133.78
2018-03-31T14:24:28.385Z,96139.48
2018-03-31T14:26:55.438Z,96135.63
2018-03-31T14:29:22.611Z,96128.60
2018-03-31T14:31:49.661Z,96135.99
2018-03-31T14:34:16.744Z,96134.27
2018-03-31T14:36:43.819Z,96135.87
2018-03-31T14:39:10.877Z,96136.45
2018-03-31T14:41:37.950Z,96136.87
2018-03-31T14:44:04.996Z,96135.77
2018-03-31T14:46:32.348Z,96139.91
2018-03-31T14:48:59.455Z,96135.80
2018-03-31T14:51:26.492Z,96141.22
2018-03-31T14:53:53.576Z,96137.91
2018-03-31T14:56:20.654Z,96141.97
2018-03-31T14:58:47.774Z,96143.63
2018-03-31T15:01:14.839Z,96146.95
2018-03-31T15:03:42.188Z,96139.27
2018-03-31T15:06:09.244Z,96142.60
2018-03-31T15:08:36.295Z,96157.06
2018-03-31T15:11:03.366Z,96160.66
2018-03-31T15:13:30.424Z,96157.20
2018-03-31T15:15:57.541Z,96163.63
2018-03-31T15:18:24.593Z,96161.11
2018-03-31T15:20:51.811Z,96158.20
2018-03-31T15:23:18.869Z,96147.73
2018-03-31T15:25:45.919Z,96156.03
2018-03-31T15:28:12.999Z,96161.77
2018-03-31T15:30:40.057Z,96153.42
2018-03-31T15:33:07.129Z,96154.48
2018-03-31T15:35:34.190Z,96152.73
2018-03-31T15:38:01.292Z,96160.42
2018-03-31T15:40:28.345Z,96169.98
2018-03-31T15:42:55.401Z,96175.20
2018-03-31T15:45:24.132Z,96173.16
2018-03-31T15:47:51.199Z,96170.24
2018-03-31T15:50:18.276Z,96179.59
2018-03-31T15:52:45.334Z,96180.23
2018-03-31T15:55:12.922Z,96171.76
2018-03-31T15:57:40.017Z,96171.37
2018-03-31T16:00:07.066Z,96168.77
2018-03-31T16:02:34.151Z,96167.84
2018-03-31T16:05:01.213Z,96168.23
2018-03-31T16:07:28.295Z,96162.31
2018-03-31T16:09:55.339Z,96166.92
2018-03-31T16:12:22.419Z,96169.03
2018-03-31T16:14:49.516Z,96169.13
2018-03-31T16:17:16.974Z,96179.04
2018-03-31T16:19:44.051Z,96174.76
2018-03-31T16:22:11.099Z,96170.05
2018-03-31T16:24:38.179Z,96170.61
2018-03-31T16:27:05.228Z,96172.78
2018-03-31T16:29:32.656Z,96176.98
2018-03-31T16:31:59.717Z,96180.48
2018-03-31T16:34:26.765Z,96181.33
2018-03-31T16:36:53.909Z,96182.11
2018-03-31T16:39:20.959Z,96195.45
2018-03-31T16:41:48.037Z,96194.88
2018-03-31T16:44:15.089Z,96202.36
2018-03-31T16:46:42.521Z,96202.77
2018-03-31T16:49:09.597Z,96208.02
2018-03-31T16:51:36.648Z,96198.93
2018-03-31T16:54:03.952Z,96198.88
2018-03-31T16:56:31.000Z,96196.09
2018-03-31T16:58:58.071Z,96199.52
2018-03-31T17:01:25.137Z,96200.91
2018-03-31T17:03:52.373Z,96196.64
2018-03-31T17:06:19.427Z,96203.05
2018-03-31T17:08:46.509Z,96195.14
2018-03-31T17:11:13.580Z,96203.53
2018-03-31T17:13:40.632Z,96203.42
2018-03-31T17:16:07.702Z,96204.61
2018-03-31T17:18:34.761Z,96197.09
2018-03-31T17:21:01.868Z,96207.05
2018-03-31T17:23:28.929Z,96204.09
2018-03-31T17:25:56.576Z,96207.86
2018-03-31T17:28:23.653Z,96208.42
2018-03-31T17:30:50.696Z,96214.15
2018-03-31T17:33:17.776Z,96211.78
2018-03-31T17:35:44.829Z,96205.95
2018-03-31T17:38:11.877Z,96215.19
2018-03-31T17:40:38.958Z,96208.32
2018-03-31T17:43:06.006Z,96214.57
2018-03-31T17:45:33.300Z,96221.34
2018-03-31T17:48:00.364Z,96221.19
2018-03-31T17:50:27.419Z,96210.71
2018-03-31T17:52:54.487Z,96214.73
2018-03-31T17:55:21.561Z,96216.23
2018-03-31T17:57:48.732Z,96215.41
2018-03-31T18:00:15.801Z,96210.25
2018-03-31T18:02:43.132Z,96208.41
2018-03-31T18:05:10.251Z,96208.95
2018-03-31T18:07:37.356Z,96210.74
2018-03-31T18:10:04.483Z,96216.55
2018-03-31T18:12:31.601Z,96218.81
2018-03-31T18:14:58.713Z,96232.59
2018-03-31T18:17:25.762Z,96238.14
2018-03-31T18:19:52.826Z,96239.83
2018-03-31T18:22:20.013Z,96243.95
2018-03-31T18:24:47.079Z,96235.95
2018-03-31T18:27:14.150Z,96246.86
2018-03-31T18:29:41.211Z,96244.42
2018-03-31T18:32:08.429Z,96248.88
2018-03-31T18:34:35.497Z,96252.60
2018-03-31T18:37:02.561Z,96241.88
2018-03-31T18:39:29.625Z,96251.42
2018-03-31T18:41:56.670Z,96245.15
2018-03-31T18:44:23.758Z,96249.77
2018-03-31T18:46:50.813Z,96247.03
2018-03-31T18:49:17.929Z,96249.38
2018-03-31T18:51:44.993Z,96253.39
2018-03-31T18:54:12.044Z,96253.41
2018-03-31T18:56:39.109Z,96264.23
2018-03-31T18:59:06.160Z,96267.48
2018-03-31T19:01:33.260Z,96273.50
2018-03-31T19:04:00.314Z,96282.79
2018-03-31T19:06:27.512Z,96280.83
2018-03-31T19:08:54.571Z,96283.24
2018-03-31T19:11:21.630Z,96281.51
2018-03-31T19:13:48.849Z,96286.01
2018-03-31T19:16:15.908Z,96291.03
2018-03-31T19:18:42.985Z,96299.04
2018-03-31T19:21:10.039Z,96298.88
2018-03-31T19:23:37.127Z,96306.27
2018-03-31T19:26:04.172Z,96311.36
2018-03-31T19:28:31.244Z,96309.12
2018-03-31T19:30:58.301Z,96315.15
2018-03-31T19:33:25.372Z,96311.87
2018-03-31T19:35:57.912Z,96311.31
2018-03-31T19:38:25.005Z,96318.03
2018-03-31T19:40:52.059Z,96318.06
2018-03-31T19:43:19.134Z,96318.69
2018-03-31T19:45:46.209Z,96324.52
2018-03-31T19:48:13.262Z,96328.25
2018-03-31T19:50:40.347Z,96339.03
2018-03-31T19:53:07.684Z,96339.48
2018-03-31T19:55:34.782Z,96342.30
2018-03-31T19:58:01.839Z,96342.86
2018-03-31T20:00:28.897Z,96344.36
2018-03-31T20:02:55.979Z,96360.88
2018-03-31T20:05:23.027Z,96357.23
2018-03-31T20:07:50.098Z,96362.73
2018-03-31T20:10:17.177Z,96359.59
2018-03-31T20:12:44.457Z,96359.39
2018-03-31T20:15:11.510Z,96365.19
2018-03-31T20:17:38.565Z,96363.52
2018-03-31T20:20:05.648Z,96369.16
2018-03-31T20:22:32.695Z,96361.76
2018-03-31T20:24:59.777Z,96363.92
2018-03-31T20:27:26.837Z,96366.08
2018-03-31T20:29:54.316Z,96363.45
2018-03-31T20:32:21.384Z,96367.80
2018-03-31T20:34:48.438Z,96361.67
2018-03-31T20:37:15.516Z,96368.23
2018-03-31T20:39:42.571Z,96373.52
2018-03-31T20:42:09.648Z,96377.27
2018-03-31T20:44:36.708Z,96373.69
2018-03-31T20:47:03.797Z,96378.66
2018-03-31T20:49:30.850Z,96385.22
2018-03-31T20:51:57.910Z,96387.20
2018-03-31T20:54:24.993Z,96385.55
2018-03-31T20:56:52.049Z,96389.73
2018-03-31T20:59:19.124Z,96386.02
2018-03-31T21:01:46.249Z,96388.93
2018-03-31T21:04:13.342Z,96386.39
2018-03-31T21:06:40.392Z,96384.89
2018-03-31T21:09:07.453Z,96386.78
2018-03-31T21:11:34.544Z,96390.02
2018-03-31T21:14:01.609Z,96385.92
2018-03-31T21:16:28.740Z,96396.48
2018-03-31T21:18:55.791Z,96397.68
2018-03-31T21:21:22.875Z,96403.88
2018-03-31T21:23:49.934Z,96402.39
2018-03-31T21:26:17.002Z,96402.36
2018-03-31T21:28:44.183Z,96401.41
2018-03-31T21:31:12.255Z,96408.04
2018-03-31T21:33:39.342Z,96403.77
2018-03-31T21:36:06.398Z,96414.23
2018-03-31T21:38:33.800Z,96414.55
2018-03-31T21:41:00.860Z,96415.02
2018-03-31T21:43:27.909Z,96415.65
2018-03-31T21:45:54.982Z,96409.97
2018-03-31T21:48:22.052Z,96408.39
2018-03-31T21:50:49.134Z,96408.71
2018-03-31T21:53:16.428Z,96412.73
2018-03-31T21:55:43.757Z,96418.41
2018-03-31T21:58:10.837Z,96414.70
2018-03-31T22:00:37.893Z,96416.75
2018-03-31T22:03:04.964Z,96423.73
2018-03-31T22:05:32.024Z,96421.14
2018-03-31T22:07:59.103Z,96417.44
2018-03-31T22:10:26.155Z,96421.30
2018-03-31T22:12:53.439Z,96416.88
2018-03-31T22:15:25.892Z,96414.52
2018-03-31T22:17:52.968Z,96406.38
2018-03-31T22:20:20.051Z,96416.30
2018-03-31T22:22:47.108Z,96413.99
2018-03-31T22:25:14.194Z,96417.66
2018-03-31T22:27:41.323Z,96418.45
2018-03-31T22:30:08.395Z,96426.02
2018-03-31T22:32:35.736Z,96420.84
2018-03-31T22:35:02.969Z,96419.43
2018-03-31T22:37:30.033Z,96419.23
2018-03-31T22:39:57.091Z,96426.25
2018-03-31T22:42:24.165Z,96425.23
2018-03-31T22:44:51.220Z,96429.62
2018-03-31T22:47:18.301Z,96424.66
2018-03-31T22:49:45.352Z,96423.03
2018-03-31T22:52:12.580Z,96427.84
2018-03-31T22:54:39.636Z,96422.16
2018-03-31T22:57:06.691Z,96424.13
2018-03-31T22:59:33.780Z,96429.48
2018-03-31T23:02:00.832Z,96424.52
2018-03-31T23:04:27.946Z,96423.37
2018-03-31T23:06:55.013Z,96426.91
2018-03-31T23:09:22.399Z,96431.62
2018-03-31T23:11:49.512Z,96430.52
2018-03-31T23:14:16.574Z,96433.22
2018-03-31T23:16:43.651Z,96432.88
2018-03-31T23:19:10.715Z,96432.91
2018-03-31T23:21:37.798Z,96431.14
2018-03-31T23:24:05.206Z,96433.91
2018-03-31T23:26:32.289Z,96427.31
2018-03-31T23:28:59.377Z,96429.14
2018-03-31T23:31:26.439Z,96435.95
2018-03-31T23:33:53.511Z,96439.63
2018-03-31T23:36:20.560Z,96438.73
2018-03-31T23:38:47.858Z,96441.69
2018-03-31T23:41:14.928Z,96444.09
2018-03-31T23:43:41.996Z,96452.72
2018-03-31T23:46:09.100Z,96451.77
2018-03-31T23:48:36.164Z,96450.24
2018-03-31T23:51:03.456Z,96447.76
2018-03-31T23:53:30.523Z,96451.06
2018-03-31T23:55:58.928Z,96447.13
2018-03-31T23:58:26.006Z,96449.33
